Clarence, Illinois
Current Conditions -  °F | °C
As of 12:30 PM on Wednesday 26 Nov 2014 (Local Time) from KTIP Reporting Station
Overcast Overcast  
Wind Chill: 22°   Ceiling: 1000
Heat Index: 30°   Visibility: 10mi
Dew Point: 24°   Wind: 8mph
Humidity: 80%   Direction: 110°ESE
Pressure: 30.08"   Gusts: NA
Location:  40.4466°N, 87.8907°W
Report Text: KTIP 261830Z AUTO 11007KT 10SM OVC010 M01/M04 A3008 RMK AO2 T10121042
Loading
Personal Weather Stations






























Interactive Weather Map New forecast layout! Learn more

10-Day Weather Forecast

Advertisements
Track Severe Weather on mobile